Shizuoka, Japan
Current Conditions -  °F | °C
As of 8:00 PM on Sunday 23 Nov 2014 (Local Time) from RJNS Reporting Station
Broken Clouds Broken Clouds  
Wind Chill: 54°   Ceiling: Unl
Heat Index: 54°   Visibility: 6mi
Dew Point: 45°   Wind: 5mph
Humidity: 72%   Direction: 320°NW
Pressure: 30.21"   Gusts: NA
Location:  34.98°N, 138.39°E
Report Text: RJNS 231100Z 32004KT 9999 FEW030 BKN/// 12/07 Q1023
Loading
Personal Weather Stations






























Interactive Weather Map New forecast layout! Learn more

10-Day Weather Forecast

Advertisements
Track Severe Weather on mobile